首页
METAR-TAF:

METAR-TAF

机场 :

多維爾, 法国

纬度: 49-21-55N, 经度: 000-09-16E, 海拔: 146米

当前天气观测

该预报发布于25分钟前的01:30 UTC
风速3节,风向西
温度 4°C
湿度 100%
气压 1012 hPa
能见度10公里或以上
少量云层高于2900英尺
散云层高于4200英尺
多云层高于5000英尺

METAR: LFRG 180130Z AUTO 26003KT 9999 FEW029 SCT042 BKN050 04/04 Q1012

时间: 02:55 (01:55 UTC)

预报

该预报发布于5小时和41分钟前的20:14 UTC
预报有效从17日的 20点(UTC)到 17日的 24点(UTC)
风速3节,风向多变
能見度: 3000
散云层高于4000英尺
轻雾
短暂存在
从 17日的 20点(UTC)到 17日的 24点(UTC)
能見度: 0500

TAF: LFRG 172014Z 1720/1724 VRB03KT 3000 BR SCT040 TEMPO 1720/1724 0500 FG

超过4000个机场的气象观测和天气预报(METAR&TAF报告)。

可查询的气象台以黄色和红色小点在地图上表示。

将鼠标移到小点上方,可查看气象台名称。

然后点击查看天气观测和预报。

如需切换地图:点击带黑十字的绿色按钮放大地图;点击带横线的绿色按钮缩小地图;或者点击绿色箭头查看邻近地区的地图。


METAR-TAF: